Elliston Post Office, Australia
Current Conditions -  °F | °C
As of 4:30 PM on Wednesday 22 Oct 2014 (Local Time) from YCDU Reporting Station
Overcast Overcast  
Wind Chill: 64°   Ceiling: 1200
Heat Index: 64°   Visibility: 6mi
Dew Point: 55°   Wind: 16mph
Humidity: 73%   Direction: 190°S
Pressure: 30.12"   Gusts: NA
Location:  33.65°S, 134.88°E
Report Text: YCDU 220630Z AUTO 19014KT 9999 // OVC012 18/13 Q1020
Loading
Personal Weather Stations






























Interactive Weather Map
Tropical Storm Tracking
New forecast layout! Learn more

10-Day Weather Forecast

Advertisements
Track Severe Weather on mobile